KPAM/PAM METAR and TAF weather

Enter ICAO airport designator
Station Type Date Time Source
KPAM METAR 2022/01/27 23:56 UTC NOAA

KPAM 272356Z AUTO 04005KT 10SM CLR 14/07 A3015 RMK AO2 SLP213 60000 T01350066 10189 20135 52004 $


Station Type Date Time Source
KPAM Decoded METAR 2022/01/27 23:56 UTC NOAA

Tyndall Air Force Base, FL, United States (KPAM) 30-04N 085-35W 13M
Jan 27, 2022 - 06:56 PM EST / 2022.01.27 2356 UTC
Wind: from the NE (040 degrees) at 6 MPH (5 KT):0
Visibility: 10 mile(s):0
Sky conditions: clear
Temperature: 56.3 F (13.5 C)
Dew Point: 43.9 F (6.6 C)
Relative Humidity: 62%
Pressure (altimeter): 30.15 in. Hg (1020 hPa)
Pressure tendency: 0.01 inches (0.4 hPa) higher than three hours ago
ob: KPAM 272356Z AUTO 04005KT 10SM CLR 14/07 A3015 RMK AO2 SLP213 60000 T01350066 10189 20135 52004
cycle: 0

Station Type Date Time Source
KPAM TAF 2022/01/27 20:06 UTC NOAA

TAF KPAM 272000Z 2720/2902 03009KT 9999 SKC QNH3010INS
BECMG 2806/2807 06009KT 9999 SCT020 BKN150 QNH3006INS
BECMG 2813/2814 01012KT 9999 BKN020 BKN150 QNH3004INS
BECMG 2818/2819 33015G21KT 9999 FEW030 SCT150 QNH2999INS TX17/2720Z TN09/2812Z

Example: see airport list